createdAt,value
2019-01-29T00:01:17.811Z,2.63
2019-01-29T00:03:48.307Z,2.80
2019-01-29T00:06:18.823Z,2.30
2019-01-29T00:08:49.401Z,3.00
2019-01-29T00:11:20.108Z,2.57
2019-01-29T00:13:50.869Z,2.90
2019-01-29T00:16:21.418Z,3.37
2019-01-29T00:18:51.920Z,3.43
2019-01-29T00:21:22.459Z,2.97
2019-01-29T00:23:53.132Z,3.07
2019-01-29T00:26:25.575Z,2.72
2019-01-29T00:28:56.080Z,2.90
2019-01-29T00:31:26.898Z,3.20
2019-01-29T00:33:57.455Z,3.00
2019-01-29T00:36:27.943Z,2.60
2019-01-29T00:38:58.484Z,2.47
2019-01-29T00:41:29.163Z,3.02
2019-01-29T00:43:59.967Z,2.40
2019-01-29T00:46:30.569Z,2.77
2019-01-29T00:49:01.091Z,2.20
2019-01-29T00:51:31.984Z,2.53
2019-01-29T00:54:02.788Z,2.27
2019-01-29T00:56:33.499Z,2.20
2019-01-29T00:59:04.167Z,2.90
2019-01-29T01:01:34.922Z,2.67
2019-01-29T01:04:06.031Z,2.67
2019-01-29T01:06:36.872Z,3.00
2019-01-29T01:09:09.963Z,2.60
2019-01-29T01:11:40.771Z,2.33
2019-01-29T01:14:11.383Z,2.30
2019-01-29T01:16:42.307Z,2.87
2019-01-29T01:19:13.348Z,2.63
2019-01-29T01:21:43.989Z,2.73
2019-01-29T01:24:14.527Z,2.77
2019-01-29T01:26:45.053Z,2.43
2019-01-29T01:29:15.575Z,2.60
2019-01-29T01:31:46.199Z,2.47
2019-01-29T01:34:16.715Z,2.40
2019-01-29T01:36:47.210Z,2.90
2019-01-29T01:39:18.017Z,2.40
2019-01-29T01:41:48.526Z,2.10
2019-01-29T01:44:19.254Z,2.03
2019-01-29T01:46:50.022Z,2.22
2019-01-29T01:49:20.593Z,2.30
2019-01-29T01:51:51.122Z,1.90
2019-01-29T01:54:21.668Z,2.27
2019-01-29T01:56:53.758Z,2.27
2019-01-29T01:59:25.386Z,2.35
2019-01-29T02:01:56.089Z,2.27
2019-01-29T02:04:26.924Z,2.90
2019-01-29T02:06:57.455Z,2.50
2019-01-29T02:09:28.306Z,1.80
2019-01-29T02:11:59.133Z,2.13
2019-01-29T02:14:29.681Z,2.58
2019-01-29T02:17:00.251Z,2.03
2019-01-29T02:19:31.427Z,2.33
2019-01-29T02:22:02.256Z,2.40
2019-01-29T02:24:33.012Z,1.75
2019-01-29T02:27:03.511Z,3.00
2019-01-29T02:29:34.342Z,3.03
2019-01-29T02:32:05.383Z,2.57
2019-01-29T02:34:36.206Z,2.60
2019-01-29T02:37:06.804Z,2.23
2019-01-29T02:39:37.426Z,2.50
2019-01-29T02:42:08.198Z,2.63
2019-01-29T02:44:38.727Z,2.23
2019-01-29T02:47:28.275Z,2.60
2019-01-29T02:49:59.067Z,2.98
2019-01-29T02:52:29.596Z,2.37
2019-01-29T02:55:00.653Z,2.50
2019-01-29T02:57:31.372Z,2.25
2019-01-29T03:00:02.257Z,2.63
2019-01-29T03:02:32.756Z,2.13
2019-01-29T03:05:03.348Z,2.30
2019-01-29T03:07:33.949Z,2.70
2019-01-29T03:10:04.954Z,2.37
2019-01-29T03:12:35.638Z,3.00
2019-01-29T03:15:08.569Z,2.70
2019-01-29T03:17:39.251Z,2.98
2019-01-29T03:20:10.949Z,2.53
2019-01-29T03:22:41.553Z,2.02
2019-01-29T03:25:13.182Z,2.70
2019-01-29T03:27:43.713Z,2.33
2019-01-29T03:30:16.660Z,2.13
2019-01-29T03:32:47.259Z,2.20
2019-01-29T03:35:18.125Z,2.77
2019-01-29T03:37:48.608Z,2.20
2019-01-29T03:40:23.624Z,2.40
2019-01-29T03:42:54.764Z,2.77
2019-01-29T03:45:27.399Z,2.90
2019-01-29T03:47:58.164Z,1.82
2019-01-29T03:50:29.250Z,2.23
2019-01-29T03:52:59.930Z,2.00
2019-01-29T03:55:30.685Z,1.93
2019-01-29T03:58:01.504Z,2.17
2019-01-29T04:00:32.275Z,2.00
2019-01-29T04:03:02.944Z,2.70
2019-01-29T04:05:33.488Z,2.35
2019-01-29T04:08:04.683Z,2.07
2019-01-29T04:10:35.515Z,2.20
2019-01-29T04:13:06.271Z,2.50
2019-01-29T04:15:36.809Z,2.73
2019-01-29T04:18:07.370Z,2.60
2019-01-29T04:20:38.056Z,2.45
2019-01-29T04:23:08.523Z,2.20
2019-01-29T04:25:39.625Z,2.50
2019-01-29T04:28:10.533Z,2.70
2019-01-29T04:30:41.360Z,2.45
2019-01-29T04:33:11.882Z,2.50
2019-01-29T04:35:42.720Z,2.57
2019-01-29T04:38:13.402Z,2.20
2019-01-29T04:40:43.916Z,2.17
2019-01-29T04:43:14.570Z,2.20
2019-01-29T04:45:45.092Z,2.20
2019-01-29T04:48:16.073Z,2.67
2019-01-29T04:50:46.552Z,1.90
2019-01-29T04:53:17.322Z,2.08
2019-01-29T04:55:47.986Z,2.40
2019-01-29T04:58:20.377Z,2.10
2019-01-29T05:00:50.914Z,2.33
2019-01-29T05:03:21.510Z,2.20
2019-01-29T05:05:52.348Z,2.58
2019-01-29T05:08:22.985Z,2.63
2019-01-29T05:10:53.516Z,2.30
2019-01-29T05:13:25.143Z,2.53
2019-01-29T05:15:55.667Z,2.50
2019-01-29T05:18:26.559Z,2.07
2019-01-29T05:20:57.070Z,2.47
2019-01-29T05:23:27.883Z,2.67
2019-01-29T05:25:58.529Z,2.00
2019-01-29T05:28:29.658Z,2.25
2019-01-29T05:31:00.181Z,2.90
2019-01-29T05:33:30.816Z,3.37
2019-01-29T05:36:01.522Z,2.77
2019-01-29T05:38:32.022Z,2.70
2019-01-29T05:41:02.552Z,2.47
2019-01-29T05:43:33.353Z,2.75
2019-01-29T05:46:03.988Z,2.30
2019-01-29T05:48:34.958Z,2.23
2019-01-29T05:51:05.526Z,2.00
2019-01-29T05:53:36.065Z,2.05
2019-01-29T05:56:06.796Z,2.40
2019-01-29T05:58:37.791Z,2.42
2019-01-29T06:01:08.315Z,2.70
2019-01-29T06:03:38.859Z,2.50
2019-01-29T06:06:09.637Z,2.37
2019-01-29T06:08:40.192Z,2.62
2019-01-29T06:11:10.710Z,2.60
2019-01-29T06:13:41.871Z,2.55
2019-01-29T06:16:12.686Z,2.80
2019-01-29T06:18:43.434Z,2.60
2019-01-29T06:21:14.008Z,2.27
2019-01-29T06:23:44.690Z,2.80
2019-01-29T06:26:15.440Z,2.47
2019-01-29T06:28:46.135Z,2.57
2019-01-29T06:31:16.716Z,2.30
2019-01-29T06:33:47.267Z,2.40
2019-01-29T06:36:17.898Z,2.83
2019-01-29T06:38:48.669Z,3.13
2019-01-29T06:41:19.185Z,2.97
2019-01-29T06:43:49.870Z,2.63
2019-01-29T06:46:20.398Z,2.67
2019-01-29T06:48:50.938Z,2.77
2019-01-29T06:51:21.680Z,3.23
2019-01-29T06:53:52.231Z,2.67
2019-01-29T06:56:22.841Z,2.80
2019-01-29T06:58:53.742Z,3.00
2019-01-29T07:01:25.493Z,2.60
2019-01-29T07:03:56.173Z,3.60
2019-01-29T07:06:27.099Z,3.50
2019-01-29T07:08:57.635Z,3.37
2019-01-29T07:11:28.236Z,2.87
2019-01-29T07:13:59.875Z,3.33
2019-01-29T07:16:41.342Z,2.90
2019-01-29T07:19:18.962Z,3.17
2019-01-29T07:21:49.743Z,2.72
2019-01-29T07:24:20.358Z,3.30
2019-01-29T07:26:50.932Z,3.27
2019-01-29T07:29:21.804Z,2.73
2019-01-29T07:31:54.421Z,3.85
2019-01-29T07:34:27.894Z,3.55
2019-01-29T07:36:58.457Z,3.57
2019-01-29T07:39:29.112Z,3.73
2019-01-29T07:41:59.782Z,3.73
2019-01-29T07:44:30.389Z,3.52
2019-01-29T07:47:00.950Z,3.90
2019-01-29T07:49:31.435Z,3.13
2019-01-29T07:52:02.001Z,3.50
2019-01-29T07:54:33.454Z,3.20
2019-01-29T07:57:04.419Z,3.30
2019-01-29T07:59:35.061Z,3.37
2019-01-29T08:02:06.115Z,3.60
2019-01-29T08:04:36.953Z,3.57
2019-01-29T08:07:07.515Z,3.03
2019-01-29T08:09:38.144Z,3.30
2019-01-29T08:12:08.966Z,4.07
2019-01-29T08:14:39.527Z,2.87
2019-01-29T08:17:10.089Z,3.40
2019-01-29T08:19:40.866Z,3.67
2019-01-29T08:22:11.463Z,3.47
2019-01-29T08:24:51.607Z,3.10
2019-01-29T08:27:15.894Z,3.47
2019-01-29T08:29:46.676Z,2.37
2019-01-29T08:32:17.350Z,2.77
2019-01-29T08:34:49.025Z,3.20
2019-01-29T08:37:19.854Z,2.63
2019-01-29T08:39:50.396Z,2.80
2019-01-29T08:42:20.927Z,3.37
2019-01-29T08:44:51.475Z,3.20
2019-01-29T08:47:24.551Z,3.20
2019-01-29T08:49:55.126Z,2.73
2019-01-29T08:52:26.330Z,3.15
2019-01-29T08:54:57.041Z,2.87
2019-01-29T08:57:27.698Z,2.70
2019-01-29T08:59:58.238Z,3.27
2019-01-29T09:02:29.105Z,2.77
2019-01-29T09:05:00.003Z,3.10
2019-01-29T09:07:30.546Z,3.02
2019-01-29T09:10:01.102Z,3.07
2019-01-29T09:12:31.919Z,3.20
2019-01-29T09:15:02.444Z,3.20
2019-01-29T09:17:33.333Z,3.23
2019-01-29T09:20:04.344Z,3.30
2019-01-29T09:22:35.119Z,3.07
2019-01-29T09:25:07.191Z,3.57
2019-01-29T09:27:39.110Z,3.05
2019-01-29T09:30:14.141Z,3.35
2019-01-29T09:32:45.098Z,2.80
2019-01-29T09:35:15.696Z,3.60
2019-01-29T09:37:46.220Z,3.30
2019-01-29T09:40:19.759Z,3.63
2019-01-29T09:42:50.283Z,3.87
2019-01-29T09:45:21.791Z,3.70
2019-01-29T09:47:52.397Z,3.37
2019-01-29T09:50:24.255Z,3.33
2019-01-29T09:52:55.588Z,3.17
2019-01-29T09:55:29.289Z,3.37
2019-01-29T09:57:58.804Z,3.73
2019-01-29T10:00:32.847Z,5.23
2019-01-29T10:03:03.590Z,3.63
2019-01-29T10:05:34.324Z,3.50
2019-01-29T10:08:06.213Z,3.17
2019-01-29T10:10:37.093Z,4.00
2019-01-29T10:13:08.256Z,3.20
2019-01-29T10:15:39.695Z,3.27
2019-01-29T10:18:10.329Z,3.43
2019-01-29T10:20:41.310Z,3.93
2019-01-29T10:23:12.046Z,3.77
2019-01-29T10:25:42.556Z,4.17
2019-01-29T10:28:13.248Z,4.17
2019-01-29T10:30:44.158Z,4.03
2019-01-29T10:33:14.756Z,4.13
2019-01-29T10:35:45.582Z,3.97
2019-01-29T10:38:16.192Z,4.97
2019-01-29T10:40:46.765Z,4.23
2019-01-29T10:43:17.284Z,4.10
2019-01-29T10:45:48.124Z,4.20
2019-01-29T10:48:18.634Z,3.90
2019-01-29T10:50:49.150Z,4.07
2019-01-29T10:53:19.699Z,4.80
2019-01-29T10:55:50.272Z,4.17
2019-01-29T10:58:20.779Z,4.13
2019-01-29T11:00:51.323Z,3.60
2019-01-29T11:03:22.338Z,2.87
2019-01-29T11:05:53.114Z,2.60
2019-01-29T11:08:23.648Z,3.33
2019-01-29T11:10:54.161Z,2.80
2019-01-29T11:13:25.848Z,3.40
2019-01-29T11:15:56.436Z,3.53
2019-01-29T11:18:27.240Z,3.50
2019-01-29T11:20:58.071Z,3.37
2019-01-29T11:23:28.655Z,3.33
2019-01-29T11:25:59.234Z,3.13
2019-01-29T11:28:30.655Z,3.10
2019-01-29T11:31:01.366Z,3.00
2019-01-29T11:33:32.458Z,3.37
2019-01-29T11:36:03.260Z,3.20
2019-01-29T11:38:34.344Z,3.10
2019-01-29T11:41:05.542Z,3.33
2019-01-29T11:43:36.666Z,3.47
2019-01-29T11:46:08.066Z,2.97
2019-01-29T11:48:38.724Z,4.28
2019-01-29T11:51:09.251Z,3.83
2019-01-29T11:53:40.343Z,3.65
2019-01-29T11:56:10.914Z,3.03
2019-01-29T11:58:41.750Z,3.23
2019-01-29T12:01:15.161Z,3.17
2019-01-29T12:03:45.716Z,3.13
2019-01-29T12:06:16.338Z,4.17
2019-01-29T12:08:46.886Z,3.60
2019-01-29T12:11:17.555Z,3.50
2019-01-29T12:13:48.325Z,3.43
2019-01-29T12:16:19.623Z,2.87
2019-01-29T12:18:50.405Z,3.57
2019-01-29T12:21:21.089Z,3.50
2019-01-29T12:23:51.599Z,3.50
2019-01-29T12:26:22.538Z,3.13
2019-01-29T12:28:53.378Z,2.80
2019-01-29T12:31:23.907Z,3.23
2019-01-29T12:33:54.447Z,3.37
2019-01-29T12:36:26.391Z,3.85
2019-01-29T12:38:57.288Z,3.22
2019-01-29T12:41:28.427Z,3.40
2019-01-29T12:43:58.968Z,3.77
2019-01-29T12:46:29.873Z,3.57
2019-01-29T12:49:00.472Z,3.37
2019-01-29T12:51:54.464Z,3.77
2019-01-29T12:54:26.529Z,3.77
2019-01-29T12:56:57.337Z,3.30
2019-01-29T12:59:28.546Z,3.60
2019-01-29T13:01:59.433Z,3.97
2019-01-29T13:04:30.305Z,3.47
2019-01-29T13:07:00.942Z,3.67
2019-01-29T13:09:31.674Z,3.40
2019-01-29T13:12:02.445Z,2.60
2019-01-29T13:14:33.038Z,2.65
2019-01-29T13:17:03.581Z,2.43
2019-01-29T13:19:34.730Z,2.40
2019-01-29T13:22:05.557Z,2.73
2019-01-29T13:24:36.419Z,2.87
2019-01-29T13:27:07.103Z,3.03
2019-01-29T13:29:37.929Z,3.10
2019-01-29T13:32:08.506Z,3.00
2019-01-29T13:34:38.991Z,3.12
2019-01-29T13:37:09.574Z,2.93
2019-01-29T13:39:40.388Z,2.35
2019-01-29T13:42:10.949Z,3.67
2019-01-29T13:44:41.567Z,3.60
2019-01-29T13:47:12.190Z,2.90
2019-01-29T13:49:42.863Z,3.15
2019-01-29T13:52:13.748Z,3.50
2019-01-29T13:54:44.575Z,3.00
2019-01-29T13:57:15.440Z,2.95
2019-01-29T13:59:46.091Z,3.70
2019-01-29T14:02:16.616Z,3.00
2019-01-29T14:04:47.459Z,2.90
2019-01-29T14:07:18.058Z,2.63
2019-01-29T14:09:48.678Z,2.80
2019-01-29T14:12:19.572Z,3.20
2019-01-29T14:14:50.253Z,3.83
2019-01-29T14:17:20.757Z,5.77
2019-01-29T14:19:51.527Z,3.77
2019-01-29T14:22:22.087Z,3.77
2019-01-29T14:24:52.721Z,3.17
2019-01-29T14:27:23.633Z,2.37
2019-01-29T14:29:54.161Z,3.47
2019-01-29T14:32:24.748Z,3.47
2019-01-29T14:34:55.642Z,3.20
2019-01-29T14:37:26.951Z,2.50
2019-01-29T14:40:19.140Z,3.27
2019-01-29T14:42:51.338Z,3.17
2019-01-29T14:45:26.181Z,3.60
2019-01-29T14:47:56.773Z,3.03
2019-01-29T14:50:28.540Z,2.80
2019-01-29T14:52:59.192Z,2.77
2019-01-29T14:55:31.017Z,2.53
2019-01-29T14:58:01.938Z,2.57
2019-01-29T15:00:33.146Z,2.17
2019-01-29T15:03:03.732Z,3.10
2019-01-29T15:05:35.415Z,2.85
2019-01-29T15:08:06.783Z,2.67
2019-01-29T15:10:37.923Z,3.00
2019-01-29T15:13:09.533Z,3.27
2019-01-29T15:15:45.495Z,3.63
2019-01-29T15:18:26.176Z,2.67
2019-01-29T15:20:56.816Z,2.30
2019-01-29T15:23:29.052Z,2.13
2019-01-29T15:25:59.832Z,2.70
2019-01-29T15:28:31.047Z,2.40
2019-01-29T15:31:03.039Z,3.07
2019-01-29T15:33:34.038Z,2.65
2019-01-29T15:36:05.757Z,2.87
2019-01-29T15:38:36.910Z,3.22
2019-01-29T15:41:08.080Z,2.93
2019-01-29T15:43:38.970Z,2.37
2019-01-29T15:46:10.093Z,2.67
2019-01-29T15:48:40.989Z,2.50
2019-01-29T15:51:11.800Z,2.73
2019-01-29T15:53:42.646Z,2.93
2019-01-29T15:56:13.211Z,3.10
2019-01-29T15:58:44.168Z,3.43
2019-01-29T16:01:14.990Z,2.60
2019-01-29T16:03:46.020Z,2.73
2019-01-29T16:06:16.639Z,2.93
2019-01-29T16:08:47.240Z,2.60
2019-01-29T16:11:17.878Z,3.17
2019-01-29T16:13:50.940Z,3.45
2019-01-29T16:16:21.695Z,4.27
2019-01-29T16:18:52.283Z,3.87
2019-01-29T16:21:23.031Z,4.03
2019-01-29T16:23:53.764Z,3.80
2019-01-29T16:26:24.464Z,4.63
2019-01-29T16:28:56.838Z,4.37
2019-01-29T16:31:27.556Z,4.00
2019-01-29T16:33:58.093Z,3.67
2019-01-29T16:36:29.197Z,3.55
2019-01-29T16:38:59.943Z,3.90
2019-01-29T16:41:32.543Z,3.58
2019-01-29T16:44:03.134Z,3.07
2019-01-29T16:46:34.090Z,3.77
2019-01-29T16:49:06.427Z,4.33
2019-01-29T16:51:42.363Z,3.87
2019-01-29T16:54:09.927Z,3.43
2019-01-29T16:56:40.595Z,4.03
2019-01-29T16:59:11.406Z,4.00
2019-01-29T17:01:42.405Z,4.07
2019-01-29T17:04:19.845Z,3.70
2019-01-29T17:06:50.201Z,4.50
2019-01-29T17:09:20.913Z,4.03
2019-01-29T17:11:51.542Z,4.83
2019-01-29T17:14:22.146Z,4.10
2019-01-29T17:16:53.216Z,4.50
2019-01-29T17:19:24.117Z,4.10
2019-01-29T17:21:55.010Z,4.77
2019-01-29T17:24:27.485Z,5.03
2019-01-29T17:26:58.570Z,6.03
2019-01-29T17:29:41.466Z,4.80
2019-01-29T17:32:15.002Z,5.43
2019-01-29T17:34:47.324Z,4.20
2019-01-29T17:37:18.845Z,4.97
2019-01-29T17:39:52.552Z,5.00
2019-01-29T17:42:24.967Z,6.67
2019-01-29T17:44:57.005Z,9.30
2019-01-29T17:47:28.750Z,6.92
2019-01-29T17:49:59.470Z,8.97
2019-01-29T17:52:31.435Z,8.17
2019-01-29T17:55:02.244Z,9.57
2019-01-29T17:57:33.112Z,8.35
2019-01-29T18:00:05.301Z,7.97
2019-01-29T18:02:37.765Z,8.07
2019-01-29T18:05:08.653Z,6.85
2019-01-29T18:07:39.593Z,6.53
2019-01-29T18:10:11.901Z,6.23
2019-01-29T18:12:43.642Z,6.43
2019-01-29T18:15:19.136Z,5.22
2019-01-29T18:17:50.157Z,4.83
2019-01-29T18:20:21.372Z,4.50
2019-01-29T18:22:52.080Z,4.10
2019-01-29T18:25:24.296Z,4.67
2019-01-29T18:28:00.902Z,5.53
2019-01-29T18:30:31.239Z,5.63
2019-01-29T18:33:03.032Z,5.85
2019-01-29T18:35:34.715Z,4.00
2019-01-29T18:38:06.898Z,4.67
2019-01-29T18:40:45.946Z,4.33
2019-01-29T18:43:16.698Z,6.33
2019-01-29T18:45:49.284Z,5.40
2019-01-29T18:48:21.483Z,5.08
2019-01-29T18:50:53.593Z,4.67
2019-01-29T18:53:24.246Z,6.07
2019-01-29T18:56:13.933Z,4.70
2019-01-29T18:58:44.816Z,4.20
2019-01-29T19:01:16.738Z,4.90
2019-01-29T19:03:49.920Z,4.40
2019-01-29T19:06:20.089Z,4.90
2019-01-29T19:08:53.769Z,4.73
2019-01-29T19:11:24.713Z,4.62
2019-01-29T19:13:55.464Z,4.77
2019-01-29T19:16:26.113Z,4.40
2019-01-29T19:18:57.982Z,4.80
2019-01-29T19:21:28.953Z,4.80
2019-01-29T19:23:59.869Z,4.60
2019-01-29T19:26:30.952Z,4.97
2019-01-29T19:29:03.216Z,4.30
2019-01-29T19:31:33.852Z,4.40
2019-01-29T19:34:05.431Z,5.35
2019-01-29T19:36:37.337Z,4.50
2019-01-29T19:39:10.258Z,4.83
2019-01-29T19:41:40.949Z,5.73
2019-01-29T19:44:11.891Z,5.83
2019-01-29T19:46:42.805Z,5.00
2019-01-29T19:49:13.449Z,5.72
2019-01-29T19:51:44.397Z,5.13
2019-01-29T19:54:15.364Z,5.37
2019-01-29T19:56:46.206Z,4.93
2019-01-29T19:59:16.911Z,5.03
2019-01-29T20:01:47.640Z,5.30
2019-01-29T20:04:19.740Z,4.83
2019-01-29T20:06:50.535Z,5.20
2019-01-29T20:09:21.370Z,4.70
2019-01-29T20:11:52.091Z,4.77
2019-01-29T20:14:23.000Z,4.53
2019-01-29T20:16:54.255Z,4.80
2019-01-29T20:19:25.071Z,5.40
2019-01-29T20:21:56.036Z,5.53
2019-01-29T20:24:27.549Z,4.70
2019-01-29T20:26:58.324Z,5.77
2019-01-29T20:29:30.827Z,5.80
2019-01-29T20:32:03.711Z,5.03
2019-01-29T20:34:34.271Z,5.03
2019-01-29T20:37:05.223Z,4.30
2019-01-29T20:39:37.287Z,4.87
2019-01-29T20:42:09.348Z,4.85
2019-01-29T20:44:40.061Z,4.70
2019-01-29T20:47:12.304Z,4.45
2019-01-29T20:49:42.970Z,4.10
2019-01-29T20:52:13.663Z,4.08
2019-01-29T20:54:44.264Z,4.70
2019-01-29T20:57:15.225Z,4.28
2019-01-29T20:59:46.056Z,4.70
2019-01-29T21:02:17.136Z,4.83
2019-01-29T21:04:56.183Z,5.43
2019-01-29T21:07:27.224Z,4.93
2019-01-29T21:10:08.872Z,6.00
2019-01-29T21:12:43.929Z,5.30
2019-01-29T21:15:16.382Z,5.77
2019-01-29T21:17:47.209Z,5.93
2019-01-29T21:20:23.314Z,5.03
2019-01-29T21:22:54.011Z,5.30
2019-01-29T21:25:27.245Z,6.40
2019-01-29T21:28:00.094Z,4.62
2019-01-29T21:30:33.885Z,5.47
2019-01-29T21:33:04.543Z,5.53
2019-01-29T21:35:36.419Z,4.83
2019-01-29T21:38:07.231Z,5.17
2019-01-29T21:40:38.339Z,4.27
2019-01-29T21:43:09.327Z,4.42
2019-01-29T21:45:40.294Z,4.70
2019-01-29T21:48:11.362Z,5.10
2019-01-29T21:50:42.191Z,4.97
2019-01-29T21:53:13.124Z,4.70
2019-01-29T21:55:44.155Z,4.90
2019-01-29T21:58:15.530Z,5.50
2019-01-29T22:00:47.247Z,6.73
2019-01-29T22:03:18.458Z,6.17
2019-01-29T22:05:49.113Z,6.23
2019-01-29T22:08:20.015Z,5.10
2019-01-29T22:10:50.613Z,4.23
2019-01-29T22:13:21.146Z,5.13
2019-01-29T22:15:51.916Z,5.90
2019-01-29T22:18:23.874Z,5.87
2019-01-29T22:20:54.545Z,6.10
2019-01-29T22:23:25.949Z,5.03
2019-01-29T22:25:56.845Z,6.13
2019-01-29T22:28:27.439Z,5.43
2019-01-29T22:30:58.288Z,7.20
2019-01-29T22:33:29.191Z,5.97
2019-01-29T22:36:00.075Z,6.13
2019-01-29T22:38:30.646Z,5.80
2019-01-29T22:41:01.214Z,4.23
2019-01-29T22:43:32.066Z,4.78
2019-01-29T22:46:03.495Z,4.45
2019-01-29T22:48:34.272Z,4.17
2019-01-29T22:51:05.185Z,4.95
2019-01-29T22:53:35.984Z,5.05
2019-01-29T22:56:06.718Z,4.70
2019-01-29T22:58:37.339Z,5.37
2019-01-29T23:01:35.309Z,5.47
2019-01-29T23:04:18.496Z,4.50
2019-01-29T23:07:16.034Z,5.17
2019-01-29T23:09:46.763Z,4.23
2019-01-29T23:12:17.607Z,4.60
2019-01-29T23:14:48.258Z,4.50
2019-01-29T23:17:19.648Z,5.50
2019-01-29T23:19:50.181Z,5.27
2019-01-29T23:22:20.729Z,5.62
2019-01-29T23:24:54.348Z,5.00
2019-01-29T23:27:25.085Z,4.73
2019-01-29T23:29:55.654Z,5.27
2019-01-29T23:32:26.203Z,6.07
2019-01-29T23:34:56.769Z,5.27
2019-01-29T23:37:27.281Z,5.57
2019-01-29T23:39:57.829Z,4.90
2019-01-29T23:42:28.398Z,4.50
2019-01-29T23:44:59.250Z,6.00
2019-01-29T23:47:30.072Z,5.33
2019-01-29T23:50:00.754Z,6.93
2019-01-29T23:52:31.754Z,5.17
2019-01-29T23:55:03.596Z,8.15
2019-01-29T23:57:34.420Z,6.33
